sensor_id;sensor_type;location;lat;lon;timestamp;temperature;humidity
36552;DHT22;22559;54.176;12.102;2022-11-15T00:00:32;6.30;99.90
36552;DHT22;22559;54.176;12.102;2022-11-15T00:02:58;6.30;99.90
36552;DHT22;22559;54.176;12.102;2022-11-15T00:05:24;6.30;99.90
36552;DHT22;22559;54.176;12.102;2022-11-15T00:07:50;6.30;99.90
36552;DHT22;22559;54.176;12.102;2022-11-15T00:10:15;6.30;99.90
36552;DHT22;22559;54.176;12.102;2022-11-15T00:12:41;6.30;99.90
36552;DHT22;22559;54.176;12.102;2022-11-15T00:15:07;6.30;99.90
36552;DHT22;22559;54.176;12.102;2022-11-15T00:17:33;6.30;99.90
36552;DHT22;22559;54.176;12.102;2022-11-15T00:19:58;6.30;99.90
36552;DHT22;22559;54.176;12.102;2022-11-15T00:22:24;6.30;99.90
36552;DHT22;22559;54.176;12.102;2022-11-15T00:24:50;6.30;99.90
36552;DHT22;22559;54.176;12.102;2022-11-15T00:27:15;6.30;99.90
36552;DHT22;22559;54.176;12.102;2022-11-15T00:29:41;6.30;99.90
36552;DHT22;22559;54.176;12.102;2022-11-15T00:32:09;6.20;99.90
36552;DHT22;22559;54.176;12.102;2022-11-15T00:34:35;6.20;99.90
36552;DHT22;22559;54.176;12.102;2022-11-15T00:37:01;6.20;99.90
36552;DHT22;22559;54.176;12.102;2022-11-15T00:39:27;6.10;99.90
36552;DHT22;22559;54.176;12.102;2022-11-15T00:41:52;6.00;99.90
36552;DHT22;22559;54.176;12.102;2022-11-15T00:44:18;6.10;99.90
36552;DHT22;22559;54.176;12.102;2022-11-15T00:46:44;6.10;99.90
36552;DHT22;22559;54.176;12.102;2022-11-15T00:49:11;6.10;99.90
36552;DHT22;22559;54.176;12.102;2022-11-15T00:51:36;6.10;99.90
36552;DHT22;22559;54.176;12.102;2022-11-15T00:54:02;6.10;99.90
36552;DHT22;22559;54.176;12.102;2022-11-15T00:56:27;6.00;99.90
36552;DHT22;22559;54.176;12.102;2022-11-15T00:58:53;6.10;99.90
36552;DHT22;22559;54.176;12.102;2022-11-15T01:01:19;6.00;99.90
36552;DHT22;22559;54.176;12.102;2022-11-15T01:03:45;6.00;99.90
36552;DHT22;22559;54.176;12.102;2022-11-15T01:06:11;6.10;99.90
36552;DHT22;22559;54.176;12.102;2022-11-15T01:08:39;6.10;99.90
36552;DHT22;22559;54.176;12.102;2022-11-15T01:11:08;6.00;99.90
36552;DHT22;22559;54.176;12.102;2022-11-15T01:13:36;6.00;99.90
36552;DHT22;22559;54.176;12.102;2022-11-15T01:18:33;6.00;99.90
36552;DHT22;22559;54.176;12.102;2022-11-15T01:20:59;6.00;99.90
36552;DHT22;22559;54.176;12.102;2022-11-15T01:23:25;6.00;99.90
36552;DHT22;22559;54.176;12.102;2022-11-15T01:25:50;6.00;99.90
36552;DHT22;22559;54.176;12.102;2022-11-15T01:28:16;5.90;99.90
36552;DHT22;22559;54.176;12.102;2022-11-15T01:30:41;5.90;99.90
36552;DHT22;22559;54.176;12.102;2022-11-15T01:33:07;5.90;99.90
36552;DHT22;22559;54.176;12.102;2022-11-15T01:35:33;5.90;99.90
36552;DHT22;22559;54.176;12.102;2022-11-15T01:37:58;5.90;99.90
36552;DHT22;22559;54.176;12.102;2022-11-15T01:40:24;5.90;99.90
36552;DHT22;22559;54.176;12.102;2022-11-15T01:42:49;5.90;99.90
36552;DHT22;22559;54.176;12.102;2022-11-15T01:45:15;5.90;99.90
36552;DHT22;22559;54.176;12.102;2022-11-15T01:47:46;5.90;99.90
36552;DHT22;22559;54.176;12.102;2022-11-15T01:50:17;5.90;99.90
36552;DHT22;22559;54.176;12.102;2022-11-15T01:52:45;6.00;99.90
36552;DHT22;22559;54.176;12.102;2022-11-15T01:55:16;6.00;99.90
36552;DHT22;22559;54.176;12.102;2022-11-15T01:57:46;5.90;99.90
36552;DHT22;22559;54.176;12.102;2022-11-15T02:00:12;5.90;99.90
36552;DHT22;22559;54.176;12.102;2022-11-15T02:02:38;5.90;99.90
36552;DHT22;22559;54.176;12.102;2022-11-15T02:05:05;5.90;99.90
36552;DHT22;22559;54.176;12.102;2022-11-15T02:07:32;5.80;99.90
36552;DHT22;22559;54.176;12.102;2022-11-15T02:10:07;5.80;99.90
36552;DHT22;22559;54.176;12.102;2022-11-15T02:12:33;5.80;99.90
36552;DHT22;22559;54.176;12.102;2022-11-15T02:14:59;5.80;99.90
36552;DHT22;22559;54.176;12.102;2022-11-15T02:17:54;5.80;99.90
36552;DHT22;22559;54.176;12.102;2022-11-15T02:26:42;5.80;99.90
36552;DHT22;22559;54.176;12.102;2022-11-15T02:32:24;5.70;99.90
36552;DHT22;22559;54.176;12.102;2022-11-15T02:37:34;5.70;99.90
36552;DHT22;22559;54.176;12.102;2022-11-15T02:40:17;5.80;99.90
36552;DHT22;22559;54.176;12.102;2022-11-15T02:42:55;5.80;99.90
36552;DHT22;22559;54.176;12.102;2022-11-15T02:45:44;5.80;99.90
36552;DHT22;22559;54.176;12.102;2022-11-15T02:48:11;5.80;99.90
36552;DHT22;22559;54.176;12.102;2022-11-15T02:50:37;5.80;99.90
36552;DHT22;22559;54.176;12.102;2022-11-15T02:53:04;5.80;99.90
36552;DHT22;22559;54.176;12.102;2022-11-15T02:55:38;5.70;99.90
36552;DHT22;22559;54.176;12.102;2022-11-15T03:00:50;5.60;99.90
36552;DHT22;22559;54.176;12.102;2022-11-15T03:03:31;5.60;99.90
36552;DHT22;22559;54.176;12.102;2022-11-15T03:11:21;5.70;99.90
36552;DHT22;22559;54.176;12.102;2022-11-15T03:13:58;5.70;99.90
36552;DHT22;22559;54.176;12.102;2022-11-15T03:16:30;5.60;99.90
36552;DHT22;22559;54.176;12.102;2022-11-15T03:19:15;5.60;99.90
36552;DHT22;22559;54.176;12.102;2022-11-15T03:21:43;5.60;99.90
36552;DHT22;22559;54.176;12.102;2022-11-15T03:24:12;5.60;99.90
36552;DHT22;22559;54.176;12.102;2022-11-15T03:26:39;5.60;99.90
36552;DHT22;22559;54.176;12.102;2022-11-15T03:29:12;5.60;99.90
36552;DHT22;22559;54.176;12.102;2022-11-15T03:31:40;5.60;99.90
36552;DHT22;22559;54.176;12.102;2022-11-15T03:36:57;5.60;99.90
36552;DHT22;22559;54.176;12.102;2022-11-15T03:39:23;5.60;99.90
36552;DHT22;22559;54.176;12.102;2022-11-15T03:47:09;5.60;99.90
36552;DHT22;22559;54.176;12.102;2022-11-15T03:49:37;5.50;99.90
36552;DHT22;22559;54.176;12.102;2022-11-15T03:52:04;5.50;99.90
36552;DHT22;22559;54.176;12.102;2022-11-15T03:54:31;5.40;99.90
36552;DHT22;22559;54.176;12.102;2022-11-15T03:56:56;5.50;99.90
36552;DHT22;22559;54.176;12.102;2022-11-15T03:59:22;5.60;99.90
36552;DHT22;22559;54.176;12.102;2022-11-15T04:01:48;5.60;99.90
36552;DHT22;22559;54.176;12.102;2022-11-15T04:04:14;5.60;99.90
36552;DHT22;22559;54.176;12.102;2022-11-15T04:06:40;5.50;99.90
36552;DHT22;22559;54.176;12.102;2022-11-15T04:09:05;5.60;99.90
36552;DHT22;22559;54.176;12.102;2022-11-15T04:11:31;5.60;99.90
36552;DHT22;22559;54.176;12.102;2022-11-15T04:13:56;5.60;99.90
36552;DHT22;22559;54.176;12.102;2022-11-15T04:16:22;5.60;99.90
36552;DHT22;22559;54.176;12.102;2022-11-15T04:18:48;5.60;99.90
36552;DHT22;22559;54.176;12.102;2022-11-15T04:21:33;5.60;99.90
36552;DHT22;22559;54.176;12.102;2022-11-15T04:24:17;5.60;99.90
36552;DHT22;22559;54.176;12.102;2022-11-15T04:26:43;5.50;99.90
36552;DHT22;22559;54.176;12.102;2022-11-15T04:29:09;5.50;99.90
36552;DHT22;22559;54.176;12.102;2022-11-15T04:31:53;5.50;99.90
36552;DHT22;22559;54.176;12.102;2022-11-15T04:34:18;5.50;99.90
36552;DHT22;22559;54.176;12.102;2022-11-15T04:36:44;5.50;99.90
36552;DHT22;22559;54.176;12.102;2022-11-15T04:39:28;5.50;99.90
36552;DHT22;22559;54.176;12.102;2022-11-15T04:41:54;5.50;99.90
36552;DHT22;22559;54.176;12.102;2022-11-15T04:44:19;5.50;99.90
36552;DHT22;22559;54.176;12.102;2022-11-15T04:46:45;5.60;99.90
36552;DHT22;22559;54.176;12.102;2022-11-15T04:49:10;5.50;99.90
36552;DHT22;22559;54.176;12.102;2022-11-15T04:51:36;5.50;99.90
36552;DHT22;22559;54.176;12.102;2022-11-15T04:54:02;5.50;99.90
36552;DHT22;22559;54.176;12.102;2022-11-15T04:56:27;5.50;99.90
36552;DHT22;22559;54.176;12.102;2022-11-15T04:58:53;5.40;99.90
36552;DHT22;22559;54.176;12.102;2022-11-15T05:01:18;5.40;99.90
36552;DHT22;22559;54.176;12.102;2022-11-15T05:03:44;5.40;99.90
36552;DHT22;22559;54.176;12.102;2022-11-15T05:06:29;5.30;99.90
36552;DHT22;22559;54.176;12.102;2022-11-15T05:08:55;5.30;99.90
36552;DHT22;22559;54.176;12.102;2022-11-15T05:11:21;5.40;99.90
36552;DHT22;22559;54.176;12.102;2022-11-15T05:13:47;5.40;99.90
36552;DHT22;22559;54.176;12.102;2022-11-15T05:16:13;5.40;99.90
36552;DHT22;22559;54.176;12.102;2022-11-15T05:18:38;5.40;99.90
36552;DHT22;22559;54.176;12.102;2022-11-15T05:21:10;5.30;99.90
36552;DHT22;22559;54.176;12.102;2022-11-15T05:23:36;5.30;99.90
36552;DHT22;22559;54.176;12.102;2022-11-15T05:26:04;5.30;99.90
36552;DHT22;22559;54.176;12.102;2022-11-15T05:28:30;5.40;99.90
36552;DHT22;22559;54.176;12.102;2022-11-15T05:31:10;5.40;99.90
36552;DHT22;22559;54.176;12.102;2022-11-15T05:33:38;5.40;99.90
36552;DHT22;22559;54.176;12.102;2022-11-15T05:38:33;5.40;99.90
36552;DHT22;22559;54.176;12.102;2022-11-15T05:41:00;5.40;99.90
36552;DHT22;22559;54.176;12.102;2022-11-15T05:43:27;5.40;99.90
36552;DHT22;22559;54.176;12.102;2022-11-15T05:45:54;5.40;99.90
36552;DHT22;22559;54.176;12.102;2022-11-15T05:48:20;5.30;99.90
36552;DHT22;22559;54.176;12.102;2022-11-15T05:50:46;5.40;99.90
36552;DHT22;22559;54.176;12.102;2022-11-15T05:53:14;5.40;99.90
36552;DHT22;22559;54.176;12.102;2022-11-15T05:55:41;5.30;99.90
36552;DHT22;22559;54.176;12.102;2022-11-15T05:58:07;5.30;99.90
36552;DHT22;22559;54.176;12.102;2022-11-15T06:00:33;5.30;99.90
36552;DHT22;22559;54.176;12.102;2022-11-15T06:02:58;5.30;99.90
36552;DHT22;22559;54.176;12.102;2022-11-15T06:05:24;5.20;99.90
36552;DHT22;22559;54.176;12.102;2022-11-15T06:07:50;5.30;99.90
36552;DHT22;22559;54.176;12.102;2022-11-15T06:10:16;5.20;99.90
36552;DHT22;22559;54.176;12.102;2022-11-15T06:12:42;5.20;99.90
36552;DHT22;22559;54.176;12.102;2022-11-15T06:15:08;5.20;99.90
36552;DHT22;22559;54.176;12.102;2022-11-15T06:17:33;5.20;99.90
36552;DHT22;22559;54.176;12.102;2022-11-15T06:19:59;5.20;99.90
36552;DHT22;22559;54.176;12.102;2022-11-15T06:22:25;5.20;99.90
36552;DHT22;22559;54.176;12.102;2022-11-15T06:24:50;5.20;99.90
36552;DHT22;22559;54.176;12.102;2022-11-15T06:27:16;5.20;99.90
36552;DHT22;22559;54.176;12.102;2022-11-15T06:29:41;5.20;99.90
36552;DHT22;22559;54.176;12.102;2022-11-15T06:32:07;5.20;99.90
36552;DHT22;22559;54.176;12.102;2022-11-15T06:34:33;5.10;99.90
36552;DHT22;22559;54.176;12.102;2022-11-15T06:36:58;5.10;99.90
36552;DHT22;22559;54.176;12.102;2022-11-15T06:39:24;5.10;99.90
36552;DHT22;22559;54.176;12.102;2022-11-15T06:41:50;5.10;99.90
36552;DHT22;22559;54.176;12.102;2022-11-15T06:44:15;5.20;99.90
36552;DHT22;22559;54.176;12.102;2022-11-15T06:46:41;5.10;99.90
36552;DHT22;22559;54.176;12.102;2022-11-15T06:49:07;5.10;99.90
36552;DHT22;22559;54.176;12.102;2022-11-15T06:51:33;5.20;99.90
36552;DHT22;22559;54.176;12.102;2022-11-15T06:53:58;5.20;99.90
36552;DHT22;22559;54.176;12.102;2022-11-15T06:56:24;5.20;99.90
36552;DHT22;22559;54.176;12.102;2022-11-15T06:58:49;5.20;99.90
36552;DHT22;22559;54.176;12.102;2022-11-15T07:01:15;5.20;99.90
36552;DHT22;22559;54.176;12.102;2022-11-15T07:03:42;5.30;99.90
36552;DHT22;22559;54.176;12.102;2022-11-15T07:06:09;5.30;99.90
36552;DHT22;22559;54.176;12.102;2022-11-15T07:08:35;5.50;99.90
36552;DHT22;22559;54.176;12.102;2022-11-15T07:11:04;5.60;99.90
36552;DHT22;22559;54.176;12.102;2022-11-15T07:13:31;5.60;99.90
36552;DHT22;22559;54.176;12.102;2022-11-15T07:16:07;5.60;99.90
36552;DHT22;22559;54.176;12.102;2022-11-15T07:18:34;5.60;99.90
36552;DHT22;22559;54.176;12.102;2022-11-15T07:21:04;5.70;99.90
36552;DHT22;22559;54.176;12.102;2022-11-15T07:23:30;5.70;99.90
36552;DHT22;22559;54.176;12.102;2022-11-15T07:25:57;5.90;99.90
36552;DHT22;22559;54.176;12.102;2022-11-15T07:28:24;5.80;99.90
36552;DHT22;22559;54.176;12.102;2022-11-15T07:30:50;5.90;99.90
36552;DHT22;22559;54.176;12.102;2022-11-15T07:33:16;5.80;99.90
36552;DHT22;22559;54.176;12.102;2022-11-15T07:35:41;5.90;99.90
36552;DHT22;22559;54.176;12.102;2022-11-15T07:38:08;5.90;99.90
36552;DHT22;22559;54.176;12.102;2022-11-15T07:40:33;6.00;99.90
36552;DHT22;22559;54.176;12.102;2022-11-15T07:43:01;6.00;99.90
36552;DHT22;22559;54.176;12.102;2022-11-15T07:45:27;6.00;99.90
36552;DHT22;22559;54.176;12.102;2022-11-15T07:47:53;6.00;99.90
36552;DHT22;22559;54.176;12.102;2022-11-15T07:50:19;6.10;99.90
36552;DHT22;22559;54.176;12.102;2022-11-15T07:52:45;6.10;99.90
36552;DHT22;22559;54.176;12.102;2022-11-15T07:55:11;6.10;99.90
36552;DHT22;22559;54.176;12.102;2022-11-15T07:57:36;6.20;99.90
36552;DHT22;22559;54.176;12.102;2022-11-15T08:00:04;6.30;99.90
36552;DHT22;22559;54.176;12.102;2022-11-15T08:02:30;6.30;99.90
36552;DHT22;22559;54.176;12.102;2022-11-15T08:04:56;6.40;99.90
36552;DHT22;22559;54.176;12.102;2022-11-15T08:07:22;6.40;99.90
36552;DHT22;22559;54.176;12.102;2022-11-15T08:09:47;6.50;99.90
36552;DHT22;22559;54.176;12.102;2022-11-15T08:12:14;6.50;99.90
36552;DHT22;22559;54.176;12.102;2022-11-15T08:14:39;6.50;99.90
36552;DHT22;22559;54.176;12.102;2022-11-15T08:17:05;6.60;99.90
36552;DHT22;22559;54.176;12.102;2022-11-15T08:19:30;6.70;99.90
36552;DHT22;22559;54.176;12.102;2022-11-15T08:21:56;6.70;99.90
36552;DHT22;22559;54.176;12.102;2022-11-15T08:24:22;6.70;99.90
36552;DHT22;22559;54.176;12.102;2022-11-15T08:26:47;6.70;99.90
36552;DHT22;22559;54.176;12.102;2022-11-15T08:29:13;6.80;99.90
36552;DHT22;22559;54.176;12.102;2022-11-15T08:31:39;6.80;99.90
36552;DHT22;22559;54.176;12.102;2022-11-15T08:34:05;6.80;99.90
36552;DHT22;22559;54.176;12.102;2022-11-15T08:36:31;6.80;99.90
36552;DHT22;22559;54.176;12.102;2022-11-15T08:38:57;6.90;99.90
36552;DHT22;22559;54.176;12.102;2022-11-15T08:41:32;7.00;99.90
36552;DHT22;22559;54.176;12.102;2022-11-15T08:43:59;6.90;99.90
36552;DHT22;22559;54.176;12.102;2022-11-15T08:46:25;7.00;99.90
36552;DHT22;22559;54.176;12.102;2022-11-15T08:48:50;7.10;99.90
36552;DHT22;22559;54.176;12.102;2022-11-15T08:51:16;7.10;99.90
36552;DHT22;22559;54.176;12.102;2022-11-15T08:53:42;7.20;99.90
36552;DHT22;22559;54.176;12.102;2022-11-15T08:56:09;7.20;99.90
36552;DHT22;22559;54.176;12.102;2022-11-15T08:58:35;7.20;99.90
36552;DHT22;22559;54.176;12.102;2022-11-15T09:01:02;7.30;99.90
36552;DHT22;22559;54.176;12.102;2022-11-15T09:03:28;7.30;99.90
36552;DHT22;22559;54.176;12.102;2022-11-15T09:05:55;7.30;99.90
36552;DHT22;22559;54.176;12.102;2022-11-15T09:08:21;7.30;99.90
36552;DHT22;22559;54.176;12.102;2022-11-15T09:10:46;7.30;99.90
36552;DHT22;22559;54.176;12.102;2022-11-15T09:13:12;7.30;99.90
36552;DHT22;22559;54.176;12.102;2022-11-15T09:15:37;7.30;99.90
36552;DHT22;22559;54.176;12.102;2022-11-15T09:18:03;7.40;99.90
36552;DHT22;22559;54.176;12.102;2022-11-15T09:20:29;7.40;99.90
36552;DHT22;22559;54.176;12.102;2022-11-15T09:22:54;7.40;99.90
36552;DHT22;22559;54.176;12.102;2022-11-15T09:25:23;7.40;99.90
36552;DHT22;22559;54.176;12.102;2022-11-15T09:27:49;7.60;99.90
36552;DHT22;22559;54.176;12.102;2022-11-15T09:30:15;7.60;99.90
36552;DHT22;22559;54.176;12.102;2022-11-15T09:32:41;7.60;99.90
36552;DHT22;22559;54.176;12.102;2022-11-15T09:35:06;7.60;99.90
36552;DHT22;22559;54.176;12.102;2022-11-15T09:37:32;7.60;99.90
36552;DHT22;22559;54.176;12.102;2022-11-15T09:39:58;7.70;99.90
36552;DHT22;22559;54.176;12.102;2022-11-15T09:42:40;7.70;99.90
36552;DHT22;22559;54.176;12.102;2022-11-15T09:50:48;7.80;99.90
36552;DHT22;22559;54.176;12.102;2022-11-15T09:56:23;7.90;99.90
36552;DHT22;22559;54.176;12.102;2022-11-15T10:04:43;8.00;99.90
36552;DHT22;22559;54.176;12.102;2022-11-15T10:07:16;8.00;99.90
36552;DHT22;22559;54.176;12.102;2022-11-15T10:09:54;8.00;99.90
36552;DHT22;22559;54.176;12.102;2022-11-15T10:12:23;8.00;99.90
36552;DHT22;22559;54.176;12.102;2022-11-15T10:14:58;8.00;99.90
36552;DHT22;22559;54.176;12.102;2022-11-15T10:22:45;8.10;99.90
36552;DHT22;22559;54.176;12.102;2022-11-15T10:25:22;8.10;99.90
36552;DHT22;22559;54.176;12.102;2022-11-15T10:28:44;8.20;99.90
36552;DHT22;22559;54.176;12.102;2022-11-15T10:30:48;8.20;99.90
36552;DHT22;22559;54.176;12.102;2022-11-15T10:41:40;8.20;99.90
36552;DHT22;22559;54.176;12.102;2022-11-15T10:46:40;8.30;99.90
36552;DHT22;22559;54.176;12.102;2022-11-15T10:49:16;8.30;99.90
36552;DHT22;22559;54.176;12.102;2022-11-15T10:51:51;8.40;99.90
36552;DHT22;22559;54.176;12.102;2022-11-15T10:56:51;8.70;99.90
36552;DHT22;22559;54.176;12.102;2022-11-15T10:59:27;9.50;99.90
36552;DHT22;22559;54.176;12.102;2022-11-15T11:01:53;10.20;99.90
36552;DHT22;22559;54.176;12.102;2022-11-15T11:04:19;10.70;99.90
36552;DHT22;22559;54.176;12.102;2022-11-15T11:06:50;11.10;99.90
36552;DHT22;22559;54.176;12.102;2022-11-15T11:09:28;11.30;99.90
36552;DHT22;22559;54.176;12.102;2022-11-15T11:11:55;11.40;99.90
36552;DHT22;22559;54.176;12.102;2022-11-15T11:14:30;11.30;99.90
36552;DHT22;22559;54.176;12.102;2022-11-15T11:17:06;11.00;99.90
36552;DHT22;22559;54.176;12.102;2022-11-15T11:46:48;9.70;99.90
36552;DHT22;22559;54.176;12.102;2022-11-15T11:56:48;9.70;99.90
36552;DHT22;22559;54.176;12.102;2022-11-15T12:01:51;9.60;99.90
36552;DHT22;22559;54.176;12.102;2022-11-15T12:04:36;9.60;99.90
36552;DHT22;22559;54.176;12.102;2022-11-15T12:07:32;9.60;99.90
36552;DHT22;22559;54.176;12.102;2022-11-15T12:15:31;9.50;99.90
36552;DHT22;22559;54.176;12.102;2022-11-15T12:17:59;9.50;99.90
36552;DHT22;22559;54.176;12.102;2022-11-15T12:20:29;9.50;99.90
36552;DHT22;22559;54.176;12.102;2022-11-15T12:23:05;9.50;99.90
36552;DHT22;22559;54.176;12.102;2022-11-15T12:25:42;9.50;99.90
36552;DHT22;22559;54.176;12.102;2022-11-15T12:33:47;9.50;99.90
36552;DHT22;22559;54.176;12.102;2022-11-15T12:38:55;9.50;99.90
36552;DHT22;22559;54.176;12.102;2022-11-15T12:41:29;9.40;99.90
36552;DHT22;22559;54.176;12.102;2022-11-15T12:43:56;9.60;99.90
36552;DHT22;22559;54.176;12.102;2022-11-15T12:49:02;9.60;99.90
36552;DHT22;22559;54.176;12.102;2022-11-15T12:59:58;9.70;99.90
36552;DHT22;22559;54.176;12.102;2022-11-15T13:02:32;9.70;99.90
36552;DHT22;22559;54.176;12.102;2022-11-15T13:17:40;9.80;99.90
36552;DHT22;22559;54.176;12.102;2022-11-15T13:23:00;10.00;99.90
36552;DHT22;22559;54.176;12.102;2022-11-15T13:27:57;10.00;99.90
36552;DHT22;22559;54.176;12.102;2022-11-15T13:30:28;10.00;99.90
36552;DHT22;22559;54.176;12.102;2022-11-15T13:32:55;9.90;99.90
36552;DHT22;22559;54.176;12.102;2022-11-15T13:35:25;10.00;99.90
36552;DHT22;22559;54.176;12.102;2022-11-15T13:37:53;10.00;99.90
36552;DHT22;22559;54.176;12.102;2022-11-15T13:40:29;10.00;99.90
36552;DHT22;22559;54.176;12.102;2022-11-15T13:42:59;10.00;99.90
36552;DHT22;22559;54.176;12.102;2022-11-15T13:45:25;10.00;99.90
36552;DHT22;22559;54.176;12.102;2022-11-15T13:47:56;10.00;99.90
36552;DHT22;22559;54.176;12.102;2022-11-15T13:50:26;10.00;99.90
36552;DHT22;22559;54.176;12.102;2022-11-15T13:52:58;10.00;99.90
36552;DHT22;22559;54.176;12.102;2022-11-15T13:55:25;9.90;99.90
36552;DHT22;22559;54.176;12.102;2022-11-15T13:58:00;9.90;99.90
36552;DHT22;22559;54.176;12.102;2022-11-15T14:00:44;10.00;99.90
36552;DHT22;22559;54.176;12.102;2022-11-15T14:03:19;9.90;99.90
36552;DHT22;22559;54.176;12.102;2022-11-15T14:06:09;9.80;99.90
36552;DHT22;22559;54.176;12.102;2022-11-15T14:08:57;9.80;99.90
36552;DHT22;22559;54.176;12.102;2022-11-15T14:11:22;9.80;99.90
36552;DHT22;22559;54.176;12.102;2022-11-15T14:16:42;9.70;99.90
36552;DHT22;22559;54.176;12.102;2022-11-15T14:22:16;9.60;99.90
36552;DHT22;22559;54.176;12.102;2022-11-15T14:24:45;9.60;99.90
36552;DHT22;22559;54.176;12.102;2022-11-15T14:27:28;9.50;99.90
36552;DHT22;22559;54.176;12.102;2022-11-15T14:29:54;9.40;99.90
36552;DHT22;22559;54.176;12.102;2022-11-15T14:32:22;9.30;99.90
36552;DHT22;22559;54.176;12.102;2022-11-15T14:37:26;9.00;99.90
36552;DHT22;22559;54.176;12.102;2022-11-15T14:39:53;9.00;99.90
36552;DHT22;22559;54.176;12.102;2022-11-15T14:42:20;8.80;99.90
36552;DHT22;22559;54.176;12.102;2022-11-15T14:44:46;8.80;99.90
36552;DHT22;22559;54.176;12.102;2022-11-15T14:47:12;8.80;99.90
36552;DHT22;22559;54.176;12.102;2022-11-15T14:49:38;8.70;99.90
36552;DHT22;22559;54.176;12.102;2022-11-15T14:52:23;8.70;99.90
36552;DHT22;22559;54.176;12.102;2022-11-15T14:54:49;8.60;99.90
36552;DHT22;22559;54.176;12.102;2022-11-15T14:57:15;8.60;99.90
36552;DHT22;22559;54.176;12.102;2022-11-15T14:59:40;8.60;99.90
36552;DHT22;22559;54.176;12.102;2022-11-15T15:04:41;8.60;99.90
36552;DHT22;22559;54.176;12.102;2022-11-15T15:07:06;8.60;99.90
36552;DHT22;22559;54.176;12.102;2022-11-15T15:09:32;8.50;99.90
36552;DHT22;22559;54.176;12.102;2022-11-15T15:11:57;8.40;99.90
36552;DHT22;22559;54.176;12.102;2022-11-15T15:14:23;8.40;99.90
36552;DHT22;22559;54.176;12.102;2022-11-15T15:16:49;8.50;99.90
36552;DHT22;22559;54.176;12.102;2022-11-15T15:19:14;8.50;99.90
36552;DHT22;22559;54.176;12.102;2022-11-15T15:21:40;8.50;99.90
36552;DHT22;22559;54.176;12.102;2022-11-15T15:24:05;8.40;99.90
36552;DHT22;22559;54.176;12.102;2022-11-15T15:26:31;8.30;99.90
36552;DHT22;22559;54.176;12.102;2022-11-15T15:29:01;8.40;99.90
36552;DHT22;22559;54.176;12.102;2022-11-15T15:31:27;8.50;99.90
36552;DHT22;22559;54.176;12.102;2022-11-15T15:33:52;8.40;99.90
36552;DHT22;22559;54.176;12.102;2022-11-15T15:36:18;8.50;99.90
36552;DHT22;22559;54.176;12.102;2022-11-15T15:38:44;8.50;99.90
36552;DHT22;22559;54.176;12.102;2022-11-15T15:41:13;8.40;99.90
36552;DHT22;22559;54.176;12.102;2022-11-15T15:43:39;8.40;99.90
36552;DHT22;22559;54.176;12.102;2022-11-15T15:46:07;8.30;99.90
36552;DHT22;22559;54.176;12.102;2022-11-15T15:48:33;8.30;99.90
36552;DHT22;22559;54.176;12.102;2022-11-15T15:51:02;8.30;99.90
36552;DHT22;22559;54.176;12.102;2022-11-15T15:53:28;8.30;99.90
36552;DHT22;22559;54.176;12.102;2022-11-15T15:55:54;8.20;99.90
36552;DHT22;22559;54.176;12.102;2022-11-15T15:58:19;8.20;99.90
36552;DHT22;22559;54.176;12.102;2022-11-15T16:00:45;8.20;99.90
36552;DHT22;22559;54.176;12.102;2022-11-15T16:03:11;8.20;99.90
36552;DHT22;22559;54.176;12.102;2022-11-15T16:05:36;8.30;99.90
36552;DHT22;22559;54.176;12.102;2022-11-15T16:08:02;8.30;99.90
36552;DHT22;22559;54.176;12.102;2022-11-15T16:10:30;8.30;99.90
36552;DHT22;22559;54.176;12.102;2022-11-15T16:12:57;8.20;99.90
36552;DHT22;22559;54.176;12.102;2022-11-15T16:15:25;8.20;99.90
36552;DHT22;22559;54.176;12.102;2022-11-15T16:18:01;8.10;99.90
36552;DHT22;22559;54.176;12.102;2022-11-15T16:22:52;8.10;99.90
36552;DHT22;22559;54.176;12.102;2022-11-15T16:25:17;8.10;99.90
36552;DHT22;22559;54.176;12.102;2022-11-15T16:27:43;8.10;99.90
36552;DHT22;22559;54.176;12.102;2022-11-15T16:30:22;8.10;99.90
36552;DHT22;22559;54.176;12.102;2022-11-15T16:32:48;8.10;99.90
36552;DHT22;22559;54.176;12.102;2022-11-15T16:35:15;8.10;99.90
36552;DHT22;22559;54.176;12.102;2022-11-15T16:37:41;8.10;99.90
36552;DHT22;22559;54.176;12.102;2022-11-15T16:40:30;8.10;99.90
36552;DHT22;22559;54.176;12.102;2022-11-15T16:42:57;8.20;99.90
36552;DHT22;22559;54.176;12.102;2022-11-15T16:45:25;8.10;99.90
36552;DHT22;22559;54.176;12.102;2022-11-15T16:47:52;8.20;99.90
36552;DHT22;22559;54.176;12.102;2022-11-15T16:50:21;8.20;99.90
36552;DHT22;22559;54.176;12.102;2022-11-15T16:52:52;8.10;99.90
36552;DHT22;22559;54.176;12.102;2022-11-15T16:55:20;8.20;99.90
36552;DHT22;22559;54.176;12.102;2022-11-15T16:57:46;8.10;99.90
36552;DHT22;22559;54.176;12.102;2022-11-15T17:00:12;8.10;99.90
36552;DHT22;22559;54.176;12.102;2022-11-15T17:02:44;8.20;99.90
36552;DHT22;22559;54.176;12.102;2022-11-15T17:05:11;8.10;99.90
36552;DHT22;22559;54.176;12.102;2022-11-15T17:07:37;8.10;99.90
36552;DHT22;22559;54.176;12.102;2022-11-15T17:10:03;8.10;99.90
36552;DHT22;22559;54.176;12.102;2022-11-15T17:12:29;8.20;99.90
36552;DHT22;22559;54.176;12.102;2022-11-15T17:14:55;8.20;99.90
36552;DHT22;22559;54.176;12.102;2022-11-15T17:17:21;8.20;99.90
36552;DHT22;22559;54.176;12.102;2022-11-15T17:19:47;8.20;99.90
36552;DHT22;22559;54.176;12.102;2022-11-15T17:22:13;8.20;99.90
36552;DHT22;22559;54.176;12.102;2022-11-15T17:24:38;8.20;99.90
36552;DHT22;22559;54.176;12.102;2022-11-15T17:27:04;8.20;99.90
36552;DHT22;22559;54.176;12.102;2022-11-15T17:29:29;8.20;99.90
36552;DHT22;22559;54.176;12.102;2022-11-15T17:31:55;8.20;99.90
36552;DHT22;22559;54.176;12.102;2022-11-15T17:34:21;8.20;99.90
36552;DHT22;22559;54.176;12.102;2022-11-15T17:36:47;8.20;99.90
36552;DHT22;22559;54.176;12.102;2022-11-15T17:39:13;8.30;99.90
36552;DHT22;22559;54.176;12.102;2022-11-15T17:41:39;8.30;99.90
36552;DHT22;22559;54.176;12.102;2022-11-15T17:44:05;8.40;99.90
36552;DHT22;22559;54.176;12.102;2022-11-15T17:46:30;8.40;99.90
36552;DHT22;22559;54.176;12.102;2022-11-15T17:48:58;8.40;99.90
36552;DHT22;22559;54.176;12.102;2022-11-15T17:51:24;8.40;99.90
36552;DHT22;22559;54.176;12.102;2022-11-15T17:53:50;8.40;99.90
36552;DHT22;22559;54.176;12.102;2022-11-15T17:56:18;8.40;99.90
36552;DHT22;22559;54.176;12.102;2022-11-15T18:01:20;8.40;99.90
36552;DHT22;22559;54.176;12.102;2022-11-15T18:03:46;8.40;99.90
36552;DHT22;22559;54.176;12.102;2022-11-15T18:06:13;8.50;99.90
36552;DHT22;22559;54.176;12.102;2022-11-15T18:08:41;8.50;99.90
36552;DHT22;22559;54.176;12.102;2022-11-15T18:11:18;8.50;99.90
36552;DHT22;22559;54.176;12.102;2022-11-15T18:13:47;8.50;99.90
36552;DHT22;22559;54.176;12.102;2022-11-15T18:16:15;8.50;99.90
36552;DHT22;22559;54.176;12.102;2022-11-15T18:18:41;8.50;99.90